Time;durP1;ratioP1;P1;durP2;ratioP2;P2;SDS_P1;SDS_P2;PMS_P1;PMS_P2;Temp;Humidity;BMP_temperature;BMP_pressure;BME280_temperature;BME280_humidity;BME280_pressure;Samples;Min_cycle;Max_cycle;Signal;HPM_P1;HPM_P2
2023/09/01 00:00:06;;;;;;;5.00;2.00;;;;;;;;;;6300913;28;20052;-82
2023/09/01 00:03:08;;;;;;;4.57;1.65;;;;;;;;;;6301465;28;20417;-81
2023/09/01 00:06:17;;;;;;;5.28;2.40;;;;;;;;;;6300941;28;20292;-81
2023/09/01 00:09:22;;;;;;;3.13;1.95;;;;;;;;;;6299794;28;20333;-81
2023/09/01 00:12:28;;;;;;;5.78;2.05;;;;;;;;;;6299981;28;20747;-82
2023/09/01 00:15:33;;;;;;;6.75;1.80;;;;;;;;;;6302703;28;20049;-81
2023/09/01 00:18:34;;;;;;;4.95;1.77;;;;;;;;;;6301895;28;20045;-81
2023/09/01 00:21:36;;;;;;;5.43;2.08;;;;;;;;;;6302147;28;20308;-84
2023/09/01 00:24:38;;;;;;;4.75;1.92;;;;;;;;;;6303035;28;20071;-81
2023/09/01 00:27:40;;;;;;;5.45;1.92;;;;;;;;;;6301220;28;20047;-81
2023/09/01 00:30:53;;;;;;;4.88;2.70;;;;;;;;;;6303985;28;20060;-81
2023/09/01 00:33:54;;;;;;;9.20;2.23;;;;;;;;;;6296378;28;20230;-81
2023/09/01 00:36:56;;;;;;;6.72;2.47;;;;;;;;;;6298379;28;20228;-81
2023/09/01 00:39:58;;;;;;;3.67;1.85;;;;;;;;;;6299592;28;20380;-82
2023/09/01 00:43:00;;;;;;;4.32;2.47;;;;;;;;;;6298888;28;20062;-82
2023/09/01 00:46:03;;;;;;;6.15;2.22;;;;;;;;;;6300018;28;20102;-82
2023/09/01 00:49:05;;;;;;;5.20;2.10;;;;;;;;;;6296401;28;20066;-82
2023/09/01 00:52:08;;;;;;;5.45;2.35;;;;;;;;;;6283519;28;20351;-81
2023/09/01 00:55:10;;;;;;;6.68;2.50;;;;;;;;;;6301681;28;20055;-81
2023/09/01 00:58:12;;;;;;;4.72;2.30;;;;;;;;;;6300274;28;20044;-81
2023/09/01 01:01:15;;;;;;;6.32;2.92;;;;;;;;;;6297897;28;20053;-81
2023/09/01 01:04:17;;;;;;;8.32;2.53;;;;;;;;;;6296650;28;20045;-82
2023/09/01 01:07:30;;;;;;;6.70;2.58;;;;;;;;;;6300681;28;20070;-81
2023/09/01 01:10:36;;;;;;;4.80;2.20;;;;;;;;;;6297476;28;20276;-81
2023/09/01 01:13:49;;;;;;;6.30;2.42;;;;;;;;;;6289264;28;20059;-81
2023/09/01 01:16:53;;;;;;;6.60;2.28;;;;;;;;;;6293888;28;20040;-84
2023/09/01 01:20:13;;;;;;;5.75;2.45;;;;;;;;;;6296398;28;20055;-80
2023/09/01 01:23:17;;;;;;;7.20;2.83;;;;;;;;;;6300100;28;20169;-82
2023/09/01 01:26:19;;;;;;;5.07;2.33;;;;;;;;;;6297757;28;20060;-81
2023/09/01 01:29:21;;;;;;;5.53;2.30;;;;;;;;;;6301785;28;20056;-81
2023/09/01 01:32:23;;;;;;;4.28;2.42;;;;;;;;;;6297680;28;20119;-82
2023/09/01 01:35:29;;;;;;;6.05;2.28;;;;;;;;;;6297156;28;20056;-83
2023/09/01 01:38:33;;;;;;;4.85;2.38;;;;;;;;;;6296431;28;20049;-82
2023/09/01 01:41:39;;;;;;;4.97;2.83;;;;;;;;;;6299044;28;20089;-80
2023/09/01 01:44:44;;;;;;;4.15;2.42;;;;;;;;;;6294288;28;20072;-80
2023/09/01 01:47:46;;;;;;;7.47;2.28;;;;;;;;;;6298104;28;20068;-81
2023/09/01 01:50:47;;;;;;;5.82;1.98;;;;;;;;;;6298899;28;20229;-80
2023/09/01 01:53:51;;;;;;;5.75;2.30;;;;;;;;;;6298786;28;20396;-81
2023/09/01 01:56:53;;;;;;;5.45;2.30;;;;;;;;;;6301703;28;20059;-80
2023/09/01 01:59:54;;;;;;;6.15;2.22;;;;;;;;;;6297765;28;20067;-84
2023/09/01 02:02:56;;;;;;;5.43;2.47;;;;;;;;;;6299620;28;20047;-83
2023/09/01 02:05:58;;;;;;;4.20;2.38;;;;;;;;;;6298588;28;20056;-80
2023/09/01 02:09:02;;;;;;;6.30;2.30;;;;;;;;;;6295979;28;20048;-80
2023/09/01 02:12:04;;;;;;;4.45;1.90;;;;;;;;;;6290069;28;20276;-81
2023/09/01 02:15:10;;;;;;;7.13;2.50;;;;;;;;;;6299106;28;20053;-81
2023/09/01 02:18:12;;;;;;;5.57;2.03;;;;;;;;;;6299102;28;20364;-81
2023/09/01 02:21:19;;;;;;;5.30;2.55;;;;;;;;;;6296962;28;20044;-81
2023/09/01 02:24:22;;;;;;;5.40;2.15;;;;;;;;;;6295742;28;20052;-81
2023/09/01 02:27:24;;;;;;;4.63;2.05;;;;;;;;;;6298622;28;20044;-80
2023/09/01 02:30:26;;;;;;;6.97;2.35;;;;;;;;;;6296404;28;20061;-81
2023/09/01 02:33:28;;;;;;;6.20;2.28;;;;;;;;;;6293251;28;20325;-81
2023/09/01 02:36:32;;;;;;;5.35;2.25;;;;;;;;;;6298711;28;20052;-82
2023/09/01 02:39:35;;;;;;;6.93;2.00;;;;;;;;;;6297352;28;20333;-81
2023/09/01 02:42:39;;;;;;;5.60;2.33;;;;;;;;;;6293667;28;20063;-83
2023/09/01 02:45:41;;;;;;;6.25;2.53;;;;;;;;;;6275416;28;20051;-80
2023/09/01 02:48:43;;;;;;;7.22;2.53;;;;;;;;;;6294628;28;20112;-82
2023/09/01 02:51:45;;;;;;;5.20;2.45;;;;;;;;;;6298481;28;20083;-81
2023/09/01 02:54:48;;;;;;;5.53;2.40;;;;;;;;;;6293452;28;20087;-81
2023/09/01 02:57:50;;;;;;;5.45;2.42;;;;;;;;;;6300033;28;20321;-81
2023/09/01 03:00:51;;;;;;;4.50;2.40;;;;;;;;;;6296107;28;21018;-80
2023/09/01 03:03:53;;;;;;;5.43;2.45;;;;;;;;;;6298226;28;20056;-80
2023/09/01 03:06:56;;;;;;;5.40;2.75;;;;;;;;;;6300932;28;20244;-81
2023/09/01 03:09:59;;;;;;;7.15;2.30;;;;;;;;;;6298993;28;20063;-81
2023/09/01 03:13:01;;;;;;;6.03;2.45;;;;;;;;;;6299972;28;20063;-81
2023/09/01 03:16:04;;;;;;;4.97;2.28;;;;;;;;;;6303090;28;20057;-83
2023/09/01 03:19:05;;;;;;;4.80;2.22;;;;;;;;;;6300747;28;20048;-80
2023/09/01 03:22:13;;;;;;;7.30;2.28;;;;;;;;;;6293118;28;20048;-81
2023/09/01 03:25:16;;;;;;;5.60;2.80;;;;;;;;;;6300938;28;20056;-80
2023/09/01 03:28:18;;;;;;;9.57;2.42;;;;;;;;;;6298196;28;20056;-81
2023/09/01 03:31:21;;;;;;;4.60;2.30;;;;;;;;;;6294105;28;20103;-83
2023/09/01 03:34:23;;;;;;;5.82;3.08;;;;;;;;;;6295585;28;20208;-81
2023/09/01 03:37:25;;;;;;;5.45;2.42;;;;;;;;;;6300178;28;20102;-81
2023/09/01 03:40:28;;;;;;;4.72;1.90;;;;;;;;;;6296510;28;20045;-80
2023/09/01 03:43:30;;;;;;;4.95;2.58;;;;;;;;;;6299629;28;20352;-80
2023/09/01 03:46:32;;;;;;;8.73;2.60;;;;;;;;;;6296977;28;20158;-80
2023/09/01 03:49:34;;;;;;;8.70;2.60;;;;;;;;;;6298383;28;20048;-79
2023/09/01 03:52:37;;;;;;;7.15;2.78;;;;;;;;;;6299301;28;20040;-82
2023/09/01 03:55:40;;;;;;;5.13;2.15;;;;;;;;;;6297055;28;20064;-83
2023/09/01 03:58:42;;;;;;;9.40;2.45;;;;;;;;;;6295721;28;20056;-83
2023/09/01 04:01:44;;;;;;;5.78;2.42;;;;;;;;;;6298478;28;20052;-82
2023/09/01 04:04:46;;;;;;;5.45;2.30;;;;;;;;;;6298951;28;20108;-81
2023/09/01 04:07:50;;;;;;;5.55;2.45;;;;;;;;;;6297328;28;20056;-81
2023/09/01 04:10:58;;;;;;;7.63;2.40;;;;;;;;;;6296930;28;20048;-80
2023/09/01 04:14:00;;;;;;;8.10;2.70;;;;;;;;;;6295449;28;20066;-79
2023/09/01 04:17:03;;;;;;;7.38;2.72;;;;;;;;;;6298064;28;20240;-80
2023/09/01 04:20:07;;;;;;;3.85;2.13;;;;;;;;;;6294394;28;20216;-80
2023/09/01 04:23:09;;;;;;;4.97;2.33;;;;;;;;;;6297526;28;20041;-81
2023/09/01 04:26:13;;;;;;;10.02;2.35;;;;;;;;;;6300033;28;20056;-79
2023/09/01 04:29:17;;;;;;;6.68;2.00;;;;;;;;;;6292454;28;20079;-81
2023/09/01 04:32:19;;;;;;;6.68;2.60;;;;;;;;;;6297014;28;20364;-80
2023/09/01 04:35:21;;;;;;;6.75;2.28;;;;;;;;;;6297917;28;20053;-81
2023/09/01 04:38:23;;;;;;;7.15;2.72;;;;;;;;;;6300576;28;20045;-80
2023/09/01 04:41:26;;;;;;;6.22;2.30;;;;;;;;;;6300526;28;20076;-81
2023/09/01 04:44:28;;;;;;;6.70;2.45;;;;;;;;;;6303869;28;20245;-81
2023/09/01 04:47:29;;;;;;;6.68;2.92;;;;;;;;;;6306788;28;20044;-80
2023/09/01 04:50:31;;;;;;;4.90;2.20;;;;;;;;;;6299569;28;20124;-81
2023/09/01 04:53:33;;;;;;;5.13;2.47;;;;;;;;;;6303455;28;20063;-80
2023/09/01 04:56:37;;;;;;;8.80;3.03;;;;;;;;;;6300105;28;20331;-81
2023/09/01 04:59:39;;;;;;;6.63;2.58;;;;;;;;;;6302623;28;20047;-80
2023/09/01 05:02:40;;;;;;;7.53;2.58;;;;;;;;;;6303052;28;20120;-81
2023/09/01 05:05:42;;;;;;;6.07;2.53;;;;;;;;;;6301612;28;20098;-80
2023/09/01 05:08:49;;;;;;;6.53;2.28;;;;;;;;;;6298234;28;20056;-83
2023/09/01 05:11:52;;;;;;;6.20;2.63;;;;;;;;;;6302133;28;20054;-80
2023/09/01 05:14:54;;;;;;;4.30;2.28;;;;;;;;;;6298178;28;20048;-79
2023/09/01 05:17:56;;;;;;;4.05;2.20;;;;;;;;;;6301518;28;20749;-82
2023/09/01 05:20:58;;;;;;;6.63;2.35;;;;;;;;;;6295517;28;20375;-83
2023/09/01 05:24:00;;;;;;;4.47;2.20;;;;;;;;;;6301768;28;20083;-83
2023/09/01 05:27:04;;;;;;;6.05;2.30;;;;;;;;;;6300111;28;20056;-82
2023/09/01 05:30:06;;;;;;;;;;;;;;;;;;6301020;28;20071;-82
2023/09/01 05:33:08;;;;;;;5.55;2.45;;;;;;;;;;6306903;28;19924;-83
2023/09/01 05:36:09;;;;;;;9.57;2.75;;;;;;;;;;6302119;28;20053;-82
2023/09/01 05:39:14;;;;;;;7.30;2.35;;;;;;;;;;6302654;28;20056;-83
2023/09/01 05:42:17;;;;;;;8.68;2.40;;;;;;;;;;6300337;28;20671;-82
2023/09/01 05:45:19;;;;;;;7.65;2.38;;;;;;;;;;6302119;28;20048;-82
2023/09/01 05:48:25;;;;;;;7.78;2.58;;;;;;;;;;6301720;28;20144;-82
2023/09/01 05:51:27;;;;;;;5.07;2.60;;;;;;;;;;6301528;28;20056;-83
2023/09/01 05:54:29;;;;;;;7.53;2.65;;;;;;;;;;6301724;28;20079;-83
2023/09/01 05:57:32;;;;;;;5.35;2.00;;;;;;;;;;6297397;28;20060;-83
2023/09/01 06:00:34;;;;;;;6.90;2.30;;;;;;;;;;6300444;28;20066;-84
2023/09/01 06:03:36;;;;;;;4.53;2.45;;;;;;;;;;6300746;28;20040;-82
2023/09/01 06:06:37;;;;;;;10.18;2.30;;;;;;;;;;6296782;28;20123;-83
2023/09/01 06:09:39;;;;;;;10.77;2.63;;;;;;;;;;6301488;28;20056;-83
2023/09/01 06:12:43;;;;;;;6.90;2.65;;;;;;;;;;6301006;28;20115;-83
2023/09/01 06:15:44;;;;;;;5.30;2.17;;;;;;;;;;6302790;28;20048;-82
2023/09/01 06:18:46;;;;;;;5.18;2.47;;;;;;;;;;6299148;28;20057;-82
2023/09/01 06:21:51;;;;;;;6.97;2.70;;;;;;;;;;6302616;28;20048;-84
2023/09/01 06:24:53;;;;;;;5.80;2.30;;;;;;;;;;6301101;28;20053;-82
2023/09/01 06:27:57;;;;;;;7.03;2.55;;;;;;;;;;6296721;28;20063;-82
2023/09/01 06:30:58;;;;;;;4.70;2.10;;;;;;;;;;6299290;28;20048;-81
2023/09/01 06:34:00;;;;;;;6.78;2.17;;;;;;;;;;6297535;28;20315;-83
2023/09/01 06:37:03;;;;;;;6.25;2.42;;;;;;;;;;6298351;28;20048;-79
2023/09/01 06:40:05;;;;;;;3.53;2.28;;;;;;;;;;6297969;28;20037;-78
2023/09/01 06:43:08;;;;;;;6.53;2.57;;;;;;;;;;6302306;28;20060;-77
2023/09/01 06:46:10;;;;;;;9.13;2.30;;;;;;;;;;6298519;28;20482;-78
2023/09/01 06:49:12;;;;;;;5.22;2.20;;;;;;;;;;6299768;28;20052;-78
2023/09/01 06:52:16;;;;;;;6.70;2.22;;;;;;;;;;6300675;28;20057;-78
2023/09/01 06:55:18;;;;;;;5.85;2.50;;;;;;;;;;6298344;28;20150;-78
2023/09/01 06:58:21;;;;;;;11.95;2.25;;;;;;;;;;6294571;28;20075;-79
2023/09/01 07:01:23;;;;;;;5.60;2.25;;;;;;;;;;6299880;28;20069;-78
2023/09/01 07:04:25;;;;;;;7.65;2.20;;;;;;;;;;6296308;28;20056;-78
2023/09/01 07:07:27;;;;;;;5.50;2.42;;;;;;;;;;6296227;28;20063;-78
2023/09/01 07:10:29;;;;;;;6.07;2.47;;;;;;;;;;6296257;28;20063;-78
2023/09/01 07:13:33;;;;;;;6.03;2.45;;;;;;;;;;6299576;28;20085;-78
2023/09/01 07:16:34;;;;;;;5.28;2.40;;;;;;;;;;6294053;28;20048;-78
2023/09/01 07:19:36;;;;;;;5.40;2.38;;;;;;;;;;6298470;28;20107;-77
2023/09/01 07:22:38;;;;;;;6.78;2.38;;;;;;;;;;6293745;28;20132;-80
2023/09/01 07:25:42;;;;;;;4.25;2.13;;;;;;;;;;6299589;28;20052;-79
2023/09/01 07:28:45;;;;;;;3.95;2.13;;;;;;;;;;6297576;28;20064;-78
2023/09/01 07:31:47;;;;;;;;;;;;;;;;;;6302182;28;20056;-78
2023/09/01 07:34:48;;;;;;;7.93;2.13;;;;;;;;;;6295620;28;20158;-78
2023/09/01 07:37:50;;;;;;;7.13;2.17;;;;;;;;;;6297343;28;20066;-78
2023/09/01 07:40:52;;;;;;;6.43;2.50;;;;;;;;;;6303212;28;20060;-78
2023/09/01 07:43:55;;;;;;;8.95;2.42;;;;;;;;;;6303223;28;20048;-79
2023/09/01 07:46:57;;;;;;;;;;;;;;;;;;6298619;28;20048;-78
2023/09/01 07:49:58;;;;;;;7.78;2.30;;;;;;;;;;6295724;28;19924;-79
2023/09/01 07:53:00;;;;;;;6.07;2.38;;;;;;;;;;6298175;28;20052;-79
2023/09/01 07:56:02;;;;;;;4.85;2.50;;;;;;;;;;6298990;28;20106;-78
2023/09/01 07:59:05;;;;;;;3.83;2.10;;;;;;;;;;6299507;28;20107;-78
2023/09/01 08:02:07;;;;;;;;;;;;;;;;;;6294818;28;20055;-78
2023/09/01 08:05:09;;;;;;;7.15;2.22;;;;;;;;;;6296532;28;19924;-78
2023/09/01 08:08:13;;;;;;;6.07;2.35;;;;;;;;;;6296633;28;20280;-78
2023/09/01 08:11:14;;;;;;;3.75;2.10;;;;;;;;;;6297985;28;20049;-78
2023/09/01 08:14:17;;;;;;;5.63;2.30;;;;;;;;;;6303405;28;20056;-77
2023/09/01 08:17:19;;;;;;;7.47;2.70;;;;;;;;;;6302309;28;20336;-77
2023/09/01 08:20:22;;;;;;;8.90;2.30;;;;;;;;;;6303623;28;20052;-77
2023/09/01 08:23:23;;;;;;;6.85;2.17;;;;;;;;;;6301761;28;20044;-78
2023/09/01 08:26:25;;;;;;;8.10;2.20;;;;;;;;;;6302540;28;20063;-78
2023/09/01 08:29:31;;;;;;;6.47;2.10;;;;;;;;;;6300516;28;20060;-78
2023/09/01 08:32:33;;;;;;;10.27;2.58;;;;;;;;;;6304287;28;20055;-79
2023/09/01 08:35:35;;;;;;;4.72;2.00;;;;;;;;;;6300595;28;20056;-78
2023/09/01 08:38:37;;;;;;;7.07;2.50;;;;;;;;;;6297742;28;20048;-77
2023/09/01 08:41:41;;;;;;;5.97;2.25;;;;;;;;;;6300093;28;20124;-78
2023/09/01 08:44:44;;;;;;;8.98;2.05;;;;;;;;;;6298237;28;20051;-79
2023/09/01 08:47:47;;;;;;;5.47;2.33;;;;;;;;;;6299884;28;20054;-76
2023/09/01 08:50:50;;;;;;;5.13;2.00;;;;;;;;;;6302310;28;20399;-79
2023/09/01 08:53:53;;;;;;;5.43;1.90;;;;;;;;;;6302782;28;20056;-77
2023/09/01 08:56:55;;;;;;;4.18;2.03;;;;;;;;;;6296289;28;20044;-77
2023/09/01 08:59:58;;;;;;;6.40;2.10;;;;;;;;;;6302154;28;20062;-77
2023/09/01 09:03:00;;;;;;;7.70;2.25;;;;;;;;;;6300095;28;20059;-76
2023/09/01 09:06:03;;;;;;;4.85;1.92;;;;;;;;;;6301345;28;20170;-76
2023/09/01 09:09:06;;;;;;;6.20;2.60;;;;;;;;;;6301577;28;20051;-75
2023/09/01 09:12:08;;;;;;;4.10;1.92;;;;;;;;;;6302666;28;20056;-75
2023/09/01 09:15:16;;;;;;;6.00;2.77;;;;;;;;;;6299389;28;20341;-76
2023/09/01 09:18:28;;;;;;;6.43;2.58;;;;;;;;;;6300625;28;20123;-75
2023/09/01 09:21:32;;;;;;;5.28;2.00;;;;;;;;;;6300971;28;20115;-75
2023/09/01 09:24:35;;;;;;;6.47;2.47;;;;;;;;;;6303368;28;20051;-75
2023/09/01 09:27:36;;;;;;;5.55;2.00;;;;;;;;;;6300483;28;20395;-77
2023/09/01 09:30:48;;;;;;;4.20;2.20;;;;;;;;;;6299987;28;20067;-75
2023/09/01 09:33:50;;;;;;;6.43;2.15;;;;;;;;;;6299359;28;20060;-75
2023/09/01 09:36:52;;;;;;;3.72;1.95;;;;;;;;;;6300126;28;20048;-75
2023/09/01 09:39:54;;;;;;;4.97;2.15;;;;;;;;;;6303351;28;20060;-75
2023/09/01 09:42:58;;;;;;;4.10;2.38;;;;;;;;;;6301092;28;20056;-76
2023/09/01 09:46:01;;;;;;;4.20;1.92;;;;;;;;;;6296994;28;20055;-76
2023/09/01 09:49:04;;;;;;;3.50;1.77;;;;;;;;;;6297071;28;20482;-76
2023/09/01 09:52:08;;;;;;;5.40;2.00;;;;;;;;;;6301598;28;20361;-75
2023/09/01 09:55:13;;;;;;;5.78;2.00;;;;;;;;;;6301917;28;20744;-76
2023/09/01 09:58:17;;;;;;;8.07;2.33;;;;;;;;;;6303230;28;20061;-76
2023/09/01 10:01:23;;;;;;;4.10;2.00;;;;;;;;;;6302696;28;20055;-76
2023/09/01 10:04:25;;;;;;;4.65;2.00;;;;;;;;;;6302091;28;20244;-76
2023/09/01 10:07:27;;;;;;;;;;;;;;;;;;6303579;28;20052;-76
2023/09/01 10:10:29;;;;;;;7.28;1.92;;;;;;;;;;6298485;28;19924;-77
2023/09/01 10:13:30;;;;;;;5.63;2.00;;;;;;;;;;6301600;28;20071;-76
2023/09/01 10:16:34;;;;;;;5.70;2.40;;;;;;;;;;6296093;28;20060;-76
2023/09/01 10:19:36;;;;;;;5.35;2.33;;;;;;;;;;6298838;28;20461;-76
2023/09/01 10:22:38;;;;;;;3.35;1.83;;;;;;;;;;6302085;28;20147;-76
2023/09/01 10:25:40;;;;;;;5.00;2.25;;;;;;;;;;6298718;28;20131;-76
2023/09/01 10:28:59;;;;;;;5.47;2.17;;;;;;;;;;6302574;28;20078;-76
2023/09/01 10:32:17;;;;;;;6.53;2.13;;;;;;;;;;6300105;28;20061;-76
2023/09/01 10:35:54;;;;;;;7.15;2.40;;;;;;;;;;6301170;28;20057;-76
2023/09/01 10:39:03;;;;;;;5.38;2.08;;;;;;;;;;6291948;28;20256;-77
2023/09/01 10:42:07;;;;;;;8.32;2.00;;;;;;;;;;6302698;28;20324;-76
2023/09/01 10:45:11;;;;;;;3.45;2.00;;;;;;;;;;6300228;28;20044;-76
2023/09/01 10:48:49;;;;;;;4.95;2.47;;;;;;;;;;6299469;28;20098;-76
2023/09/01 10:52:14;;;;;;;4.50;2.20;;;;;;;;;;6297551;28;20060;-77
2023/09/01 10:55:15;;;;;;;3.25;1.50;;;;;;;;;;6296153;28;20047;-77
2023/09/01 10:58:17;;;;;;;5.30;2.07;;;;;;;;;;6299851;28;20040;-77
2023/09/01 11:01:30;;;;;;;6.13;2.17;;;;;;;;;;6303080;28;20053;-77
2023/09/01 11:04:33;;;;;;;;;;;;;;;;;;6301307;28;20083;-77
2023/09/01 11:08:12;;;;;;;2.78;1.58;;;;;;;;;;6303001;28;19923;-77
2023/09/01 11:11:31;;;;;;;3.58;1.75;;;;;;;;;;6298599;28;20442;-82
2023/09/01 11:14:37;;;;;;;6.00;2.05;;;;;;;;;;6287462;28;20225;-80
2023/09/01 11:17:49;;;;;;;4.35;1.73;;;;;;;;;;6282738;28;20056;-80
2023/09/01 11:20:57;;;;;;;6.38;2.20;;;;;;;;;;6298624;28;20059;-79
2023/09/01 11:23:59;;;;;;;5.90;2.60;;;;;;;;;;6300691;28;20056;-80
2023/09/01 11:27:04;;;;;;;5.97;2.30;;;;;;;;;;6291903;28;20040;-80
2023/09/01 11:30:11;;;;;;;5.45;2.00;;;;;;;;;;6289740;28;20087;-84
2023/09/01 11:33:15;;;;;;;5.53;2.30;;;;;;;;;;6295277;28;20055;-85
2023/09/01 11:36:23;;;;;;;6.05;2.20;;;;;;;;;;6294549;28;20076;-84
2023/09/01 11:39:37;;;;;;;4.72;1.90;;;;;;;;;;6281373;28;20091;-88
2023/09/01 11:42:40;;;;;;;4.00;2.03;;;;;;;;;;6280981;28;20051;-80
2023/09/01 11:45:46;;;;;;;5.90;2.10;;;;;;;;;;6290123;28;20040;-78
2023/09/01 11:48:48;;;;;;;6.38;2.20;;;;;;;;;;6291730;28;20237;-76
2023/09/01 11:51:51;;;;;;;4.45;1.95;;;;;;;;;;6299932;28;20040;-76
2023/09/01 11:54:53;;;;;;;2.58;1.73;;;;;;;;;;6299088;28;20328;-76
2023/09/01 11:57:54;;;;;;;2.45;1.83;;;;;;;;;;6305371;28;20124;-77
2023/09/01 12:00:57;;;;;;;2.90;1.85;;;;;;;;;;6302724;28;20271;-77
2023/09/01 12:04:05;;;;;;;5.10;1.83;;;;;;;;;;6299601;28;20067;-76
2023/09/01 12:07:08;;;;;;;3.28;1.80;;;;;;;;;;6301685;28;20056;-76
2023/09/01 12:10:21;;;;;;;5.32;2.53;;;;;;;;;;6298408;28;20404;-76
2023/09/01 12:13:24;;;;;;;4.32;1.88;;;;;;;;;;6300999;28;20063;-76
2023/09/01 12:16:26;;;;;;;3.35;2.10;;;;;;;;;;6297522;28;20053;-76
2023/09/01 12:19:29;;;;;;;8.50;2.50;;;;;;;;;;6302206;28;20357;-76
2023/09/01 12:22:32;;;;;;;4.30;2.13;;;;;;;;;;6302414;28;20090;-76
2023/09/01 12:25:34;;;;;;;3.83;1.90;;;;;;;;;;6300198;28;20110;-76
2023/09/01 12:28:37;;;;;;;4.40;1.75;;;;;;;;;;6298376;28;20052;-77
2023/09/01 12:31:39;;;;;;;4.65;2.03;;;;;;;;;;6304709;28;20059;-77
2023/09/01 12:34:41;;;;;;;3.05;1.60;;;;;;;;;;6304085;28;20060;-76
2023/09/01 12:37:44;;;;;;;7.15;1.80;;;;;;;;;;6302134;28;20052;-77
2023/09/01 12:40:46;;;;;;;4.65;1.67;;;;;;;;;;6301378;28;20147;-77
2023/09/01 12:43:48;;;;;;;4.95;2.47;;;;;;;;;;6305420;28;20375;-77
2023/09/01 12:46:51;;;;;;;4.55;1.65;;;;;;;;;;6306210;28;20680;-77
2023/09/01 12:49:53;;;;;;;3.88;1.88;;;;;;;;;;6304534;28;20588;-76
2023/09/01 12:52:56;;;;;;;4.20;1.92;;;;;;;;;;6303139;28;20384;-77
2023/09/01 12:55:59;;;;;;;2.83;1.90;;;;;;;;;;6303413;28;20061;-76
2023/09/01 12:59:01;;;;;;;4.38;2.15;;;;;;;;;;6302066;28;20052;-79
2023/09/01 13:02:03;;;;;;;4.28;1.90;;;;;;;;;;6297396;28;20602;-76
2023/09/01 13:05:05;;;;;;;5.25;1.73;;;;;;;;;;6305369;28;20198;-76
2023/09/01 13:08:09;;;;;;;3.70;2.08;;;;;;;;;;6303151;28;20053;-76
2023/09/01 13:11:11;;;;;;;3.88;1.80;;;;;;;;;;6301073;28;20495;-76
2023/09/01 13:14:12;;;;;;;;;;;;;;;;;;6300957;28;20049;-76
2023/09/01 13:17:14;;;;;;;4.60;1.95;;;;;;;;;;6303600;28;20002;-76
2023/09/01 13:20:16;;;;;;;5.35;1.80;;;;;;;;;;6300379;28;20052;-76
2023/09/01 13:23:19;;;;;;;6.75;2.00;;;;;;;;;;6300929;28;20056;-76
2023/09/01 13:26:21;;;;;;;3.20;1.70;;;;;;;;;;6300066;28;20059;-76
2023/09/01 13:29:22;;;;;;;3.97;1.63;;;;;;;;;;6298792;28;20116;-76
2023/09/01 13:32:24;;;;;;;5.25;1.80;;;;;;;;;;6302810;28;20055;-76
2023/09/01 13:35:26;;;;;;;;;;;;;;;;;;6302740;28;20375;-76
2023/09/01 13:38:29;;;;;;;3.60;1.67;;;;;;;;;;6301974;28;19924;-77
2023/09/01 13:41:31;;;;;;;4.05;2.20;;;;;;;;;;6301141;28;20249;-75
2023/09/01 13:44:33;;;;;;;4.70;1.98;;;;;;;;;;6293374;28;20090;-76
2023/09/01 13:47:34;;;;;;;4.40;1.80;;;;;;;;;;6303089;28;20374;-76
2023/09/01 13:50:36;;;;;;;4.25;1.60;;;;;;;;;;6300312;28;20080;-76
2023/09/01 13:53:40;;;;;;;;;;;;;;;;;;6298151;28;20054;-76
2023/09/01 13:56:41;;;;;;;5.38;2.45;;;;;;;;;;6293714;28;19932;-79
2023/09/01 13:59:43;;;;;;;4.90;2.05;;;;;;;;;;6296358;28;20064;-78
2023/09/01 14:02:45;;;;;;;3.75;2.30;;;;;;;;;;6285384;28;20067;-77
2023/09/01 14:05:54;;;;;;;5.07;2.40;;;;;;;;;;6299648;28;20056;-78
2023/09/01 14:08:58;;;;;;;4.10;1.70;;;;;;;;;;6300921;28;20053;-78
2023/09/01 14:12:07;;;;;;;3.50;1.88;;;;;;;;;;6298709;28;20056;-78
2023/09/01 14:15:10;;;;;;;4.13;1.85;;;;;;;;;;6296789;28;20056;-78
2023/09/01 14:18:25;;;;;;;3.53;2.03;;;;;;;;;;6297817;28;20079;-78
2023/09/01 14:21:27;;;;;;;3.28;1.75;;;;;;;;;;6297374;28;20047;-78
2023/09/01 14:24:44;;;;;;;4.50;2.13;;;;;;;;;;6297380;28;20607;-79
2023/09/01 14:27:46;;;;;;;3.60;2.03;;;;;;;;;;6287537;28;20056;-79
2023/09/01 14:30:49;;;;;;;4.00;1.80;;;;;;;;;;6289427;28;20080;-78
2023/09/01 14:37:28;;;;;;;4.72;1.88;;;;;;;;;;6298979;28;20044;-79
2023/09/01 14:41:09;;;;;;;3.72;1.60;;;;;;;;;;6286595;28;20048;-78
2023/09/01 14:44:12;;;;;;;2.33;1.80;;;;;;;;;;6281981;28;21760;-80
2023/09/01 14:47:14;;;;;;;3.35;1.83;;;;;;;;;;6298594;28;20063;-79
2023/09/01 14:50:48;;;;;;;;;;;;;;;;;;;;;
2023/09/01 14:53:50;;;;;;;5.50;2.05;;;;;;;;;;6289457;28;20094;-79
2023/09/01 15:04:16;;;;;;;4.95;1.85;;;;;;;;;;6240444;28;20049;-76
2023/09/01 15:11:19;;;;;;;3.85;1.48;;;;;;;;;;6230906;28;20219;-76
2023/09/01 15:14:21;;;;;;;2.80;1.63;;;;;;;;;;6227272;28;20396;-76
2023/09/01 15:17:24;;;;;;;5.18;1.85;;;;;;;;;;6244492;28;20076;-75
2023/09/01 15:20:26;;;;;;;5.07;1.80;;;;;;;;;;6244691;28;20080;-77
2023/09/01 15:23:28;;;;;;;3.70;1.90;;;;;;;;;;6245164;28;20373;-75
2023/09/01 15:26:30;;;;;;;2.85;1.67;;;;;;;;;;6239308;28;20061;-76
2023/09/01 15:29:32;;;;;;;3.30;1.70;;;;;;;;;;6240234;28;20049;-76
2023/09/01 15:32:36;;;;;;;2.17;1.63;;;;;;;;;;6246169;28;20064;-78
2023/09/01 15:35:38;;;;;;;3.75;2.00;;;;;;;;;;6247342;28;20301;-76
2023/09/01 15:38:40;;;;;;;4.57;1.77;;;;;;;;;;6244965;28;20254;-76
2023/09/01 15:41:42;;;;;;;8.52;2.30;;;;;;;;;;6301433;28;20048;-76
2023/09/01 15:44:44;;;;;;;;;;;;;;;;;;6303212;28;20349;-75
2023/09/01 15:47:47;;;;;;;3.58;2.15;;;;;;;;;;6298177;28;19964;-76
2023/09/01 15:50:55;;;;;;;2.55;1.90;;;;;;;;;;6300351;28;20064;-76
2023/09/01 15:53:59;;;;;;;5.22;2.55;;;;;;;;;;6291322;28;20063;-75
2023/09/01 15:57:09;;;;;;;2.95;2.05;;;;;;;;;;6288620;28;20338;-76
2023/09/01 16:00:12;;;;;;;5.38;2.17;;;;;;;;;;6296292;28;20129;-78
2023/09/01 16:03:15;;;;;;;3.85;2.10;;;;;;;;;;6293593;28;20114;-75
2023/09/01 16:06:20;;;;;;;3.63;1.70;;;;;;;;;;6289530;28;20226;-76
2023/09/01 16:09:24;;;;;;;3.95;2.00;;;;;;;;;;6294354;28;20048;-75
2023/09/01 16:12:29;;;;;;;6.90;2.20;;;;;;;;;;6280337;28;20272;-75
2023/09/01 16:15:52;;;;;;;3.58;2.10;;;;;;;;;;6264843;28;20135;-75
2023/09/01 16:18:55;;;;;;;5.13;2.65;;;;;;;;;;6296079;28;20063;-76
2023/09/01 16:22:00;;;;;;;3.88;1.88;;;;;;;;;;6295386;28;20061;-75
2023/09/01 16:25:03;;;;;;;6.32;2.83;;;;;;;;;;6295543;28;20364;-75
2023/09/01 16:28:05;;;;;;;6.63;2.50;;;;;;;;;;6296909;28;20058;-76
2023/09/01 16:31:07;;;;;;;4.65;1.98;;;;;;;;;;6300160;28;20044;-75
2023/09/01 16:34:29;;;;;;;;;;;;;;;;;;;;;
2023/09/01 16:37:31;;;;;;;6.68;2.50;;;;;;;;;;6270059;28;20527;-76
2023/09/01 16:40:33;;;;;;;4.67;2.13;;;;;;;;;;6300220;28;20072;-75
2023/09/01 16:43:35;;;;;;;4.68;2.08;;;;;;;;;;6297062;28;20519;-74
2023/09/01 16:46:37;;;;;;;6.93;2.33;;;;;;;;;;6290406;28;20102;-75
2023/09/01 16:49:41;;;;;;;5.80;1.97;;;;;;;;;;6296379;28;20055;-76
2023/09/01 16:52:43;;;;;;;5.70;2.38;;;;;;;;;;6299270;28;20064;-76
2023/09/01 16:55:45;;;;;;;4.78;2.22;;;;;;;;;;6300136;28;20060;-77
2023/09/01 16:58:47;;;;;;;4.35;1.73;;;;;;;;;;6303620;28;20256;-78
2023/09/01 17:01:52;;;;;;;5.90;2.37;;;;;;;;;;6302440;28;20052;-77
2023/09/01 17:05:09;;;;;;;5.60;2.30;;;;;;;;;;6300680;28;20460;-76
2023/09/01 17:08:11;;;;;;;5.30;2.08;;;;;;;;;;6293255;28;20052;-76
2023/09/01 17:11:20;;;;;;;4.55;2.30;;;;;;;;;;6301971;28;20322;-75
2023/09/01 17:14:24;;;;;;;4.63;2.03;;;;;;;;;;6299059;28;20098;-75
2023/09/01 17:17:26;;;;;;;5.05;2.00;;;;;;;;;;6298233;28;20060;-75
2023/09/01 17:20:30;;;;;;;5.20;2.25;;;;;;;;;;6298350;28;21187;-75
2023/09/01 17:23:32;;;;;;;4.90;2.50;;;;;;;;;;6298740;28;20106;-76
2023/09/01 17:26:33;;;;;;;6.72;2.65;;;;;;;;;;6299166;28;20055;-75
2023/09/01 17:29:36;;;;;;;5.90;2.45;;;;;;;;;;6299429;28;20048;-75
2023/09/01 17:32:38;;;;;;;6.13;3.47;;;;;;;;;;6299501;28;20086;-75
2023/09/01 17:35:48;;;;;;;6.18;3.97;;;;;;;;;;6298038;28;20338;-75
2023/09/01 17:38:52;;;;;;;5.70;2.40;;;;;;;;;;6296497;28;20053;-75
2023/09/01 17:41:54;;;;;;;6.35;2.47;;;;;;;;;;6301196;28;20060;-75
2023/09/01 17:44:56;;;;;;;5.60;2.67;;;;;;;;;;6302016;28;20697;-76
2023/09/01 17:47:58;;;;;;;6.10;2.20;;;;;;;;;;6298370;28;20245;-77
2023/09/01 17:51:02;;;;;;;5.10;2.30;;;;;;;;;;6298897;28;20047;-76
2023/09/01 17:54:05;;;;;;;5.22;2.58;;;;;;;;;;6301567;28;20053;-75
2023/09/01 17:57:07;;;;;;;4.43;2.53;;;;;;;;;;6299296;28;20065;-74
2023/09/01 18:00:11;;;;;;;4.32;2.47;;;;;;;;;;6296867;28;20480;-75
2023/09/01 18:03:12;;;;;;;5.97;3.17;;;;;;;;;;6297642;28;20356;-75
2023/09/01 18:06:17;;;;;;;6.32;2.30;;;;;;;;;;6300783;28;20064;-75
2023/09/01 18:09:19;;;;;;;6.93;2.60;;;;;;;;;;6296913;28;20061;-75
2023/09/01 18:12:24;;;;;;;8.50;2.30;;;;;;;;;;6300109;28;20059;-75
2023/09/01 18:15:26;;;;;;;6.40;2.53;;;;;;;;;;6297957;28;20272;-75
2023/09/01 18:18:28;;;;;;;6.75;2.60;;;;;;;;;;6298429;28;20275;-74
2023/09/01 18:21:33;;;;;;;4.57;2.40;;;;;;;;;;6298004;28;20260;-75
2023/09/01 18:24:35;;;;;;;6.13;2.85;;;;;;;;;;6294137;28;20059;-75
2023/09/01 18:27:37;;;;;;;5.37;3.10;;;;;;;;;;6293395;28;20053;-74
2023/09/01 18:30:39;;;;;;;7.28;2.65;;;;;;;;;;6294558;28;20365;-74
2023/09/01 18:33:42;;;;;;;6.17;2.80;;;;;;;;;;6288983;28;20116;-75
2023/09/01 18:36:45;;;;;;;;;;;;;;;;;;6293011;28;20190;-75
2023/09/01 18:39:48;;;;;;;8.40;2.47;;;;;;;;;;6293759;28;19924;-76
2023/09/01 18:42:53;;;;;;;8.73;3.53;;;;;;;;;;6289414;28;20241;-74